首页
METAR-TAF:

METAR-TAF

机场 :

佩尔, 比利时

纬度: 51-10N, 经度: 005-28E, 海拔: 55米

当前天气观测

该预报发布于44分钟前的18:25 UTC
风速12节,风向南转西南
温度 7°C
湿度 76%
气压 1020 hPa
能见度10公里或以上
散云层高于3600英尺
多云层高于23000英尺

METAR: EBBL 181825Z 21012KT 9999 SCT036 BKN230 07/03 Q1020 BLU BLU

时间: 20:09 (19:09 UTC)

预报

该预报发布于3小时和28分钟前的15:41 UTC
预报有效从18日的 19点(UTC)到 19日的 07点(UTC)
风速15节,风向西南,有时为30节阵风
能见度10公里或以上
散云层高于2500英尺
散云层高于12000英尺
多云层高于23000英尺
成为
从 18日的 21点(UTC)到 18日的 23点(UTC)
能見度: 6000
多云层高于2000英尺
小雨, 小阵雨
短暂存在
从 18日的 23点(UTC)到 19日的 04点(UTC)
能見度: 3000
散云层高于800英尺
多云层高于1500英尺
雨, 阵雨
成为
从 19日的 04点(UTC)到 19日的 06点(UTC)
风速11节,风向西
能见度10公里或以上
散云层高于2000英尺
散云层高于3000英尺

TAF: EBBL 181541Z 1819/1907 23015G30KT 9999 SCT025 SCT120 BKN230 BECMG 1821/1823 6000 -RA -SHRA BKN020 TEMPO 1823/1904 3000 RA SHRA SCT008 BKN015 BECMG 1904/1906 27011KT 9999 SCT020 SCT030

超过4000个机场的气象观测和天气预报(METAR&TAF报告)。

可查询的气象台以黄色和红色小点在地图上表示。

将鼠标移到小点上方,可查看气象台名称。

然后点击查看天气观测和预报。

如需切换地图:点击带黑十字的绿色按钮放大地图;点击带横线的绿色按钮缩小地图;或者点击绿色箭头查看邻近地区的地图。


METAR-TAF: